sensor_id;sensor_type;location;lat;lon;timestamp;P1;durP1;ratioP1;P2;durP2;ratioP2
71288;SDS011;59068;52.502;9.860;2023-01-10T00:01:42;13.70;;;10.60;;
71288;SDS011;59068;52.502;9.860;2023-01-10T00:04:09;17.37;;;11.60;;
71288;SDS011;59068;52.502;9.860;2023-01-10T00:06:34;19.10;;;12.60;;
71288;SDS011;59068;52.502;9.860;2023-01-10T00:09:00;19.50;;;11.73;;
71288;SDS011;59068;52.502;9.860;2023-01-10T00:11:26;20.87;;;12.03;;
71288;SDS011;59068;52.502;9.860;2023-01-10T00:14:09;17.30;;;12.03;;
71288;SDS011;59068;52.502;9.860;2023-01-10T00:16:37;18.30;;;11.43;;
71288;SDS011;59068;52.502;9.860;2023-01-10T00:19:07;18.97;;;12.53;;
71288;SDS011;59068;52.502;9.860;2023-01-10T00:21:35;18.03;;;11.83;;
71288;SDS011;59068;52.502;9.860;2023-01-10T00:24:02;19.63;;;12.20;;
71288;SDS011;59068;52.502;9.860;2023-01-10T00:26:44;20.07;;;12.13;;
71288;SDS011;59068;52.502;9.860;2023-01-10T00:31:59;19.20;;;13.20;;
71288;SDS011;59068;52.502;9.860;2023-01-10T00:34:26;20.30;;;12.83;;
71288;SDS011;59068;52.502;9.860;2023-01-10T00:36:51;18.03;;;12.17;;
71288;SDS011;59068;52.502;9.860;2023-01-10T00:39:18;18.03;;;11.80;;
71288;SDS011;59068;52.502;9.860;2023-01-10T00:41:46;16.97;;;12.53;;
71288;SDS011;59068;52.502;9.860;2023-01-10T00:44:31;19.17;;;13.23;;
71288;SDS011;59068;52.502;9.860;2023-01-10T00:46:58;24.27;;;13.63;;
71288;SDS011;59068;52.502;9.860;2023-01-10T00:49:25;18.13;;;12.33;;
71288;SDS011;59068;52.502;9.860;2023-01-10T00:51:50;16.80;;;12.13;;
71288;SDS011;59068;52.502;9.860;2023-01-10T00:54:15;18.40;;;12.70;;
71288;SDS011;59068;52.502;9.860;2023-01-10T00:56:41;18.70;;;11.57;;
71288;SDS011;59068;52.502;9.860;2023-01-10T00:59:07;18.10;;;12.03;;
71288;SDS011;59068;52.502;9.860;2023-01-10T01:01:33;18.77;;;12.97;;
71288;SDS011;59068;52.502;9.860;2023-01-10T01:04:00;23.73;;;15.00;;
71288;SDS011;59068;52.502;9.860;2023-01-10T01:06:25;20.10;;;13.23;;
71288;SDS011;59068;52.502;9.860;2023-01-10T01:08:51;20.27;;;14.33;;
71288;SDS011;59068;52.502;9.860;2023-01-10T01:11:17;23.13;;;14.33;;
71288;SDS011;59068;52.502;9.860;2023-01-10T01:13:43;22.47;;;13.20;;
71288;SDS011;59068;52.502;9.860;2023-01-10T01:16:09;18.97;;;13.20;;
71288;SDS011;59068;52.502;9.860;2023-01-10T01:18:37;21.83;;;13.13;;
71288;SDS011;59068;52.502;9.860;2023-01-10T01:21:04;18.40;;;13.47;;
71288;SDS011;59068;52.502;9.860;2023-01-10T01:23:32;16.80;;;13.20;;
71288;SDS011;59068;52.502;9.860;2023-01-10T01:25:58;21.73;;;12.83;;
71288;SDS011;59068;52.502;9.860;2023-01-10T01:28:25;17.50;;;13.23;;
71288;SDS011;59068;52.502;9.860;2023-01-10T01:30:51;19.77;;;11.97;;
71288;SDS011;59068;52.502;9.860;2023-01-10T01:33:18;21.93;;;13.07;;
71288;SDS011;59068;52.502;9.860;2023-01-10T01:35:45;19.63;;;14.83;;
71288;SDS011;59068;52.502;9.860;2023-01-10T01:38:13;22.60;;;14.23;;
71288;SDS011;59068;52.502;9.860;2023-01-10T01:40:39;22.37;;;13.47;;
71288;SDS011;59068;52.502;9.860;2023-01-10T01:43:28;16.40;;;11.63;;
71288;SDS011;59068;52.502;9.860;2023-01-10T01:45:54;21.20;;;13.53;;
71288;SDS011;59068;52.502;9.860;2023-01-10T01:48:35;18.07;;;12.90;;
71288;SDS011;59068;52.502;9.860;2023-01-10T01:51:14;17.43;;;11.80;;
71288;SDS011;59068;52.502;9.860;2023-01-10T01:53:46;19.67;;;13.30;;
71288;SDS011;59068;52.502;9.860;2023-01-10T01:56:40;17.77;;;12.57;;
71288;SDS011;59068;52.502;9.860;2023-01-10T02:01:48;21.60;;;14.53;;
71288;SDS011;59068;52.502;9.860;2023-01-10T02:07:04;19.20;;;12.60;;
71288;SDS011;59068;52.502;9.860;2023-01-10T02:09:33;17.87;;;11.53;;
71288;SDS011;59068;52.502;9.860;2023-01-10T02:12:03;22.53;;;14.13;;
71288;SDS011;59068;52.502;9.860;2023-01-10T02:14:30;21.60;;;13.37;;
71288;SDS011;59068;52.502;9.860;2023-01-10T02:16:58;13.17;;;10.93;;
71288;SDS011;59068;52.502;9.860;2023-01-10T02:37:31;13.20;;;8.97;;
71288;SDS011;59068;52.502;9.860;2023-01-10T02:40:25;13.83;;;7.67;;
71288;SDS011;59068;52.502;9.860;2023-01-10T02:43:04;7.80;;;6.57;;
71288;SDS011;59068;52.502;9.860;2023-01-10T02:45:45;13.00;;;7.27;;
71288;SDS011;59068;52.502;9.860;2023-01-10T02:48:15;9.27;;;6.27;;
71288;SDS011;59068;52.502;9.860;2023-01-10T02:53:40;15.13;;;10.00;;
71288;SDS011;59068;52.502;9.860;2023-01-10T02:56:32;12.07;;;8.43;;
71288;SDS011;59068;52.502;9.860;2023-01-10T03:05:02;12.37;;;9.67;;
71288;SDS011;59068;52.502;9.860;2023-01-10T03:07:38;15.67;;;10.00;;
71288;SDS011;59068;52.502;9.860;2023-01-10T03:10:24;14.30;;;10.20;;
71288;SDS011;59068;52.502;9.860;2023-01-10T03:12:57;17.97;;;9.50;;
71288;SDS011;59068;52.502;9.860;2023-01-10T03:15:28;16.30;;;10.30;;
71288;SDS011;59068;52.502;9.860;2023-01-10T03:17:58;14.03;;;9.63;;
71288;SDS011;59068;52.502;9.860;2023-01-10T03:20:25;14.00;;;9.03;;
71288;SDS011;59068;52.502;9.860;2023-01-10T03:22:52;14.33;;;9.10;;
71288;SDS011;59068;52.502;9.860;2023-01-10T03:25:20;16.67;;;9.53;;
71288;SDS011;59068;52.502;9.860;2023-01-10T03:28:22;13.93;;;8.70;;
71288;SDS011;59068;52.502;9.860;2023-01-10T03:30:51;13.00;;;8.40;;
71288;SDS011;59068;52.502;9.860;2023-01-10T03:33:26;14.03;;;8.23;;
71288;SDS011;59068;52.502;9.860;2023-01-10T03:35:57;18.00;;;8.57;;
71288;SDS011;59068;52.502;9.860;2023-01-10T03:50:23;11.70;;;6.50;;
71288;SDS011;59068;52.502;9.860;2023-01-10T03:52:50;11.97;;;7.10;;
71288;SDS011;59068;52.502;9.860;2023-01-10T03:55:18;11.97;;;6.60;;
71288;SDS011;59068;52.502;9.860;2023-01-10T03:57:47;12.77;;;6.40;;
71288;SDS011;59068;52.502;9.860;2023-01-10T04:00:13;9.70;;;6.13;;
71288;SDS011;59068;52.502;9.860;2023-01-10T04:02:39;10.00;;;6.07;;
71288;SDS011;59068;52.502;9.860;2023-01-10T04:05:06;8.53;;;5.40;;
71288;SDS011;59068;52.502;9.860;2023-01-10T04:07:33;11.27;;;5.77;;
71288;SDS011;59068;52.502;9.860;2023-01-10T04:10:00;6.63;;;4.63;;
71288;SDS011;59068;52.502;9.860;2023-01-10T04:12:26;9.00;;;4.63;;
71288;SDS011;59068;52.502;9.860;2023-01-10T04:14:53;7.40;;;5.63;;
71288;SDS011;59068;52.502;9.860;2023-01-10T04:17:19;9.20;;;5.10;;
71288;SDS011;59068;52.502;9.860;2023-01-10T04:19:45;6.73;;;4.77;;
71288;SDS011;59068;52.502;9.860;2023-01-10T04:22:10;9.03;;;4.50;;
71288;SDS011;59068;52.502;9.860;2023-01-10T04:24:37;7.40;;;4.77;;
71288;SDS011;59068;52.502;9.860;2023-01-10T04:27:04;6.60;;;4.60;;
71288;SDS011;59068;52.502;9.860;2023-01-10T04:29:31;9.33;;;4.87;;
71288;SDS011;59068;52.502;9.860;2023-01-10T04:31:56;9.00;;;5.17;;
71288;SDS011;59068;52.502;9.860;2023-01-10T04:34:22;10.93;;;4.33;;
71288;SDS011;59068;52.502;9.860;2023-01-10T04:36:49;11.63;;;3.97;;
71288;SDS011;59068;52.502;9.860;2023-01-10T04:39:16;6.93;;;4.40;;
71288;SDS011;59068;52.502;9.860;2023-01-10T04:41:42;6.60;;;4.00;;
71288;SDS011;59068;52.502;9.860;2023-01-10T04:44:09;10.77;;;4.63;;
71288;SDS011;59068;52.502;9.860;2023-01-10T04:46:34;11.37;;;4.33;;
71288;SDS011;59068;52.502;9.860;2023-01-10T04:49:01;12.17;;;4.80;;
71288;SDS011;59068;52.502;9.860;2023-01-10T04:51:27;12.17;;;5.17;;
71288;SDS011;59068;52.502;9.860;2023-01-10T04:53:54;13.50;;;4.40;;
71288;SDS011;59068;52.502;9.860;2023-01-10T04:56:21;10.73;;;4.83;;
71288;SDS011;59068;52.502;9.860;2023-01-10T04:58:47;8.20;;;3.17;;
71288;SDS011;59068;52.502;9.860;2023-01-10T05:01:18;14.40;;;4.13;;
71288;SDS011;59068;52.502;9.860;2023-01-10T05:03:50;8.77;;;4.33;;
71288;SDS011;59068;52.502;9.860;2023-01-10T05:06:16;13.00;;;4.17;;
71288;SDS011;59068;52.502;9.860;2023-01-10T05:08:42;11.33;;;4.90;;
71288;SDS011;59068;52.502;9.860;2023-01-10T05:11:08;7.70;;;3.97;;
71288;SDS011;59068;52.502;9.860;2023-01-10T05:13:36;13.47;;;5.17;;
71288;SDS011;59068;52.502;9.860;2023-01-10T05:16:03;10.83;;;4.10;;
71288;SDS011;59068;52.502;9.860;2023-01-10T05:18:30;12.27;;;4.67;;
71288;SDS011;59068;52.502;9.860;2023-01-10T05:21:04;6.60;;;3.73;;
71288;SDS011;59068;52.502;9.860;2023-01-10T05:23:35;14.80;;;4.63;;
71288;SDS011;59068;52.502;9.860;2023-01-10T05:26:10;9.57;;;4.00;;
71288;SDS011;59068;52.502;9.860;2023-01-10T05:28:38;9.23;;;3.60;;
71288;SDS011;59068;52.502;9.860;2023-01-10T05:31:15;9.83;;;4.13;;
71288;SDS011;59068;52.502;9.860;2023-01-10T05:33:43;7.10;;;4.03;;
71288;SDS011;59068;52.502;9.860;2023-01-10T05:36:12;10.63;;;4.20;;
71288;SDS011;59068;52.502;9.860;2023-01-10T05:38:39;9.23;;;4.03;;
71288;SDS011;59068;52.502;9.860;2023-01-10T05:41:05;9.13;;;4.27;;
71288;SDS011;59068;52.502;9.860;2023-01-10T05:43:32;10.70;;;4.90;;
71288;SDS011;59068;52.502;9.860;2023-01-10T05:45:58;14.77;;;4.83;;
71288;SDS011;59068;52.502;9.860;2023-01-10T05:48:24;10.93;;;5.00;;
71288;SDS011;59068;52.502;9.860;2023-01-10T05:50:51;15.13;;;4.23;;
71288;SDS011;59068;52.502;9.860;2023-01-10T05:53:17;12.97;;;4.53;;
71288;SDS011;59068;52.502;9.860;2023-01-10T05:55:53;9.13;;;4.93;;
71288;SDS011;59068;52.502;9.860;2023-01-10T05:58:20;10.53;;;4.67;;
71288;SDS011;59068;52.502;9.860;2023-01-10T06:00:47;12.40;;;5.60;;
71288;SDS011;59068;52.502;9.860;2023-01-10T06:03:14;11.63;;;5.43;;
71288;SDS011;59068;52.502;9.860;2023-01-10T06:05:39;11.13;;;5.07;;
71288;SDS011;59068;52.502;9.860;2023-01-10T06:08:06;11.33;;;5.07;;
71288;SDS011;59068;52.502;9.860;2023-01-10T06:10:31;13.00;;;5.97;;
71288;SDS011;59068;52.502;9.860;2023-01-10T06:12:58;14.57;;;5.43;;
71288;SDS011;59068;52.502;9.860;2023-01-10T06:15:23;11.00;;;5.50;;
71288;SDS011;59068;52.502;9.860;2023-01-10T06:17:51;12.87;;;6.50;;
71288;SDS011;59068;52.502;9.860;2023-01-10T06:20:16;12.63;;;6.37;;
71288;SDS011;59068;52.502;9.860;2023-01-10T06:22:42;16.33;;;6.83;;
71288;SDS011;59068;52.502;9.860;2023-01-10T06:25:09;12.00;;;6.40;;
71288;SDS011;59068;52.502;9.860;2023-01-10T06:27:39;14.60;;;7.57;;
71288;SDS011;59068;52.502;9.860;2023-01-10T06:30:06;14.33;;;6.53;;
71288;SDS011;59068;52.502;9.860;2023-01-10T06:32:32;9.83;;;6.43;;
71288;SDS011;59068;52.502;9.860;2023-01-10T06:34:58;12.27;;;6.40;;
71288;SDS011;59068;52.502;9.860;2023-01-10T06:37:23;17.00;;;7.40;;
71288;SDS011;59068;52.502;9.860;2023-01-10T06:39:50;15.90;;;6.97;;
71288;SDS011;59068;52.502;9.860;2023-01-10T06:42:17;15.13;;;7.37;;
71288;SDS011;59068;52.502;9.860;2023-01-10T06:44:42;18.27;;;7.03;;
71288;SDS011;59068;52.502;9.860;2023-01-10T06:47:09;10.90;;;6.47;;
71288;SDS011;59068;52.502;9.860;2023-01-10T06:49:34;13.13;;;6.23;;
71288;SDS011;59068;52.502;9.860;2023-01-10T06:52:00;12.73;;;6.17;;
71288;SDS011;59068;52.502;9.860;2023-01-10T06:54:27;11.97;;;6.53;;
71288;SDS011;59068;52.502;9.860;2023-01-10T06:56:54;14.37;;;6.90;;
71288;SDS011;59068;52.502;9.860;2023-01-10T06:59:20;15.20;;;7.77;;
71288;SDS011;59068;52.502;9.860;2023-01-10T07:01:47;15.43;;;6.57;;
71288;SDS011;59068;52.502;9.860;2023-01-10T07:04:13;19.90;;;9.97;;
71288;SDS011;59068;52.502;9.860;2023-01-10T07:06:39;18.03;;;10.67;;
71288;SDS011;59068;52.502;9.860;2023-01-10T07:09:07;14.27;;;8.63;;
71288;SDS011;59068;52.502;9.860;2023-01-10T07:11:33;14.27;;;8.57;;
71288;SDS011;59068;52.502;9.860;2023-01-10T07:14:01;17.93;;;7.80;;
71288;SDS011;59068;52.502;9.860;2023-01-10T07:16:26;12.60;;;8.10;;
71288;SDS011;59068;52.502;9.860;2023-01-10T07:18:54;13.00;;;7.67;;
71288;SDS011;59068;52.502;9.860;2023-01-10T07:21:19;13.23;;;7.93;;
71288;SDS011;59068;52.502;9.860;2023-01-10T07:23:49;16.13;;;7.80;;
71288;SDS011;59068;52.502;9.860;2023-01-10T07:26:16;16.43;;;7.37;;
71288;SDS011;59068;52.502;9.860;2023-01-10T07:28:50;10.53;;;6.67;;
71288;SDS011;59068;52.502;9.860;2023-01-10T07:31:17;13.63;;;7.43;;
71288;SDS011;59068;52.502;9.860;2023-01-10T07:33:43;17.83;;;7.80;;
71288;SDS011;59068;52.502;9.860;2023-01-10T07:36:09;14.73;;;7.47;;
71288;SDS011;59068;52.502;9.860;2023-01-10T07:38:34;14.17;;;7.43;;
71288;SDS011;59068;52.502;9.860;2023-01-10T07:41:02;15.30;;;7.20;;
71288;SDS011;59068;52.502;9.860;2023-01-10T07:43:28;14.87;;;7.60;;
71288;SDS011;59068;52.502;9.860;2023-01-10T07:45:58;14.83;;;7.73;;
71288;SDS011;59068;52.502;9.860;2023-01-10T07:48:25;14.40;;;7.20;;
71288;SDS011;59068;52.502;9.860;2023-01-10T07:50:54;13.63;;;6.87;;
71288;SDS011;59068;52.502;9.860;2023-01-10T07:53:26;15.97;;;6.63;;
71288;SDS011;59068;52.502;9.860;2023-01-10T07:55:58;13.00;;;6.10;;
71288;SDS011;59068;52.502;9.860;2023-01-10T07:58:26;13.77;;;7.00;;
71288;SDS011;59068;52.502;9.860;2023-01-10T08:00:56;10.43;;;6.60;;
71288;SDS011;59068;52.502;9.860;2023-01-10T08:03:23;8.93;;;5.60;;
71288;SDS011;59068;52.502;9.860;2023-01-10T08:05:55;12.90;;;6.50;;
71288;SDS011;59068;52.502;9.860;2023-01-10T08:08:24;12.23;;;6.20;;
71288;SDS011;59068;52.502;9.860;2023-01-10T08:10:51;16.27;;;6.47;;
71288;SDS011;59068;52.502;9.860;2023-01-10T08:13:17;17.57;;;6.43;;
71288;SDS011;59068;52.502;9.860;2023-01-10T08:15:44;13.53;;;5.93;;
71288;SDS011;59068;52.502;9.860;2023-01-10T08:18:12;10.57;;;5.50;;
71288;SDS011;59068;52.502;9.860;2023-01-10T08:20:37;15.63;;;6.20;;
71288;SDS011;59068;52.502;9.860;2023-01-10T08:23:04;10.40;;;5.80;;
71288;SDS011;59068;52.502;9.860;2023-01-10T08:25:29;12.30;;;5.87;;
71288;SDS011;59068;52.502;9.860;2023-01-10T08:27:56;14.10;;;6.53;;
71288;SDS011;59068;52.502;9.860;2023-01-10T08:30:22;11.37;;;6.23;;
71288;SDS011;59068;52.502;9.860;2023-01-10T08:32:49;12.03;;;6.43;;
71288;SDS011;59068;52.502;9.860;2023-01-10T08:35:17;10.50;;;6.37;;
71288;SDS011;59068;52.502;9.860;2023-01-10T08:37:44;10.83;;;6.33;;
71288;SDS011;59068;52.502;9.860;2023-01-10T08:40:09;11.57;;;6.70;;
71288;SDS011;59068;52.502;9.860;2023-01-10T08:42:36;11.17;;;7.03;;
71288;SDS011;59068;52.502;9.860;2023-01-10T08:45:02;15.17;;;7.37;;
71288;SDS011;59068;52.502;9.860;2023-01-10T08:47:30;12.23;;;7.10;;
71288;SDS011;59068;52.502;9.860;2023-01-10T08:49:55;15.33;;;6.83;;
71288;SDS011;59068;52.502;9.860;2023-01-10T08:52:22;13.37;;;7.20;;
71288;SDS011;59068;52.502;9.860;2023-01-10T08:54:49;13.03;;;7.37;;
71288;SDS011;59068;52.502;9.860;2023-01-10T08:57:15;14.00;;;6.70;;
71288;SDS011;59068;52.502;9.860;2023-01-10T08:59:41;12.83;;;7.00;;
71288;SDS011;59068;52.502;9.860;2023-01-10T09:02:09;13.80;;;6.97;;
71288;SDS011;59068;52.502;9.860;2023-01-10T09:04:38;15.80;;;7.50;;
71288;SDS011;59068;52.502;9.860;2023-01-10T09:07:03;15.77;;;7.27;;
71288;SDS011;59068;52.502;9.860;2023-01-10T09:09:30;14.30;;;6.70;;
71288;SDS011;59068;52.502;9.860;2023-01-10T09:11:55;13.47;;;6.50;;
71288;SDS011;59068;52.502;9.860;2023-01-10T09:14:21;15.27;;;7.33;;
71288;SDS011;59068;52.502;9.860;2023-01-10T09:16:46;13.17;;;6.70;;
71288;SDS011;59068;52.502;9.860;2023-01-10T09:19:17;12.37;;;6.27;;
71288;SDS011;59068;52.502;9.860;2023-01-10T09:21:43;14.37;;;6.50;;
71288;SDS011;59068;52.502;9.860;2023-01-10T09:24:09;16.83;;;7.33;;
71288;SDS011;59068;52.502;9.860;2023-01-10T09:26:35;14.63;;;6.70;;
71288;SDS011;59068;52.502;9.860;2023-01-10T09:29:02;14.00;;;7.00;;
71288;SDS011;59068;52.502;9.860;2023-01-10T09:31:29;16.60;;;7.43;;
71288;SDS011;59068;52.502;9.860;2023-01-10T09:33:55;13.53;;;7.40;;
71288;SDS011;59068;52.502;9.860;2023-01-10T09:36:22;13.37;;;7.60;;
71288;SDS011;59068;52.502;9.860;2023-01-10T09:38:48;15.70;;;8.07;;
71288;SDS011;59068;52.502;9.860;2023-01-10T09:46:51;14.70;;;7.87;;
71288;SDS011;59068;52.502;9.860;2023-01-10T09:49:38;11.67;;;7.40;;
71288;SDS011;59068;52.502;9.860;2023-01-10T09:52:17;14.80;;;7.97;;
71288;SDS011;59068;52.502;9.860;2023-01-10T09:54:45;17.17;;;8.23;;
71288;SDS011;59068;52.502;9.860;2023-01-10T09:57:15;11.90;;;8.40;;
71288;SDS011;59068;52.502;9.860;2023-01-10T09:59:42;14.63;;;9.47;;
71288;SDS011;59068;52.502;9.860;2023-01-10T10:05:01;15.93;;;9.57;;
71288;SDS011;59068;52.502;9.860;2023-01-10T10:07:57;21.40;;;10.20;;
71288;SDS011;59068;52.502;9.860;2023-01-10T10:13:20;19.77;;;11.00;;
71288;SDS011;59068;52.502;9.860;2023-01-10T10:16:02;12.33;;;9.53;;
71288;SDS011;59068;52.502;9.860;2023-01-10T10:24:33;19.47;;;10.27;;
71288;SDS011;59068;52.502;9.860;2023-01-10T10:32:55;15.60;;;8.93;;
71288;SDS011;59068;52.502;9.860;2023-01-10T10:35:53;18.53;;;10.30;;
71288;SDS011;59068;52.502;9.860;2023-01-10T10:38:25;17.40;;;10.33;;
71288;SDS011;59068;52.502;9.860;2023-01-10T10:40:55;14.83;;;9.10;;
71288;SDS011;59068;52.502;9.860;2023-01-10T10:43:33;14.47;;;10.13;;
71288;SDS011;59068;52.502;9.860;2023-01-10T10:46:12;18.80;;;10.63;;
71288;SDS011;59068;52.502;9.860;2023-01-10T10:48:52;17.50;;;10.67;;
71288;SDS011;59068;52.502;9.860;2023-01-10T10:54:16;15.80;;;10.27;;
71288;SDS011;59068;52.502;9.860;2023-01-10T10:56:42;33.80;;;17.97;;
71288;SDS011;59068;52.502;9.860;2023-01-10T10:59:08;20.97;;;12.33;;
71288;SDS011;59068;52.502;9.860;2023-01-10T11:01:37;15.73;;;10.20;;
71288;SDS011;59068;52.502;9.860;2023-01-10T11:04:07;16.30;;;11.03;;
71288;SDS011;59068;52.502;9.860;2023-01-10T11:06:39;15.53;;;10.33;;
71288;SDS011;59068;52.502;9.860;2023-01-10T11:09:11;19.87;;;10.77;;
71288;SDS011;59068;52.502;9.860;2023-01-10T11:11:42;18.60;;;11.47;;
71288;SDS011;59068;52.502;9.860;2023-01-10T11:14:10;17.93;;;11.50;;
71288;SDS011;59068;52.502;9.860;2023-01-10T11:16:40;18.20;;;9.53;;
71288;SDS011;59068;52.502;9.860;2023-01-10T11:24:38;14.60;;;8.80;;
71288;SDS011;59068;52.502;9.860;2023-01-10T11:27:17;13.57;;;7.97;;
71288;SDS011;59068;52.502;9.860;2023-01-10T11:29:48;13.93;;;7.93;;
71288;SDS011;59068;52.502;9.860;2023-01-10T11:32:30;15.50;;;7.70;;
71288;SDS011;59068;52.502;9.860;2023-01-10T11:34:59;10.13;;;7.60;;
71288;SDS011;59068;52.502;9.860;2023-01-10T11:37:29;13.80;;;8.47;;
71288;SDS011;59068;52.502;9.860;2023-01-10T11:40:16;16.13;;;8.57;;
71288;SDS011;59068;52.502;9.860;2023-01-10T11:43:21;12.10;;;7.63;;
71288;SDS011;59068;52.502;9.860;2023-01-10T11:45:57;13.03;;;7.30;;
71288;SDS011;59068;52.502;9.860;2023-01-10T11:48:32;12.20;;;7.63;;
71288;SDS011;59068;52.502;9.860;2023-01-10T11:51:12;13.70;;;8.37;;
71288;SDS011;59068;52.502;9.860;2023-01-10T11:53:42;12.63;;;9.00;;
71288;SDS011;59068;52.502;9.860;2023-01-10T11:56:12;12.20;;;8.37;;
71288;SDS011;59068;52.502;9.860;2023-01-10T11:58:39;15.90;;;8.87;;
71288;SDS011;59068;52.502;9.860;2023-01-10T12:01:22;15.43;;;9.70;;
71288;SDS011;59068;52.502;9.860;2023-01-10T12:03:54;14.83;;;9.80;;
71288;SDS011;59068;52.502;9.860;2023-01-10T12:06:20;18.77;;;10.03;;
71288;SDS011;59068;52.502;9.860;2023-01-10T12:08:46;14.13;;;8.63;;
71288;SDS011;59068;52.502;9.860;2023-01-10T12:13:48;17.33;;;9.93;;
71288;SDS011;59068;52.502;9.860;2023-01-10T12:16:26;23.50;;;9.70;;
71288;SDS011;59068;52.502;9.860;2023-01-10T12:18:55;19.07;;;9.03;;
71288;SDS011;59068;52.502;9.860;2023-01-10T12:21:27;14.10;;;9.07;;
71288;SDS011;59068;52.502;9.860;2023-01-10T12:24:00;12.67;;;9.03;;
71288;SDS011;59068;52.502;9.860;2023-01-10T12:26:53;20.57;;;9.60;;
71288;SDS011;59068;52.502;9.860;2023-01-10T12:29:26;16.33;;;7.83;;
71288;SDS011;59068;52.502;9.860;2023-01-10T12:31:58;13.93;;;9.27;;
71288;SDS011;59068;52.502;9.860;2023-01-10T12:34:26;17.33;;;9.53;;
71288;SDS011;59068;52.502;9.860;2023-01-10T12:40:24;24.27;;;9.57;;
71288;SDS011;59068;52.502;9.860;2023-01-10T12:46:23;16.87;;;8.33;;
71288;SDS011;59068;52.502;9.860;2023-01-10T12:48:54;17.60;;;8.53;;
71288;SDS011;59068;52.502;9.860;2023-01-10T12:51:26;15.63;;;8.07;;
71288;SDS011;59068;52.502;9.860;2023-01-10T12:53:57;15.63;;;7.57;;
71288;SDS011;59068;52.502;9.860;2023-01-10T12:56:29;15.13;;;8.03;;
71288;SDS011;59068;52.502;9.860;2023-01-10T12:58:59;11.37;;;7.17;;
71288;SDS011;59068;52.502;9.860;2023-01-10T13:01:29;15.93;;;7.10;;
71288;SDS011;59068;52.502;9.860;2023-01-10T13:04:05;15.37;;;6.97;;
71288;SDS011;59068;52.502;9.860;2023-01-10T13:06:33;12.77;;;6.07;;
71288;SDS011;59068;52.502;9.860;2023-01-10T13:09:03;13.97;;;6.77;;
71288;SDS011;59068;52.502;9.860;2023-01-10T13:11:31;17.07;;;6.23;;
71288;SDS011;59068;52.502;9.860;2023-01-10T13:14:01;14.93;;;6.07;;
71288;SDS011;59068;52.502;9.860;2023-01-10T13:16:33;11.87;;;6.67;;
71288;SDS011;59068;52.502;9.860;2023-01-10T13:21:35;11.90;;;6.47;;
71288;SDS011;59068;52.502;9.860;2023-01-10T13:24:03;13.17;;;7.10;;
71288;SDS011;59068;52.502;9.860;2023-01-10T13:26:55;11.90;;;7.10;;
71288;SDS011;59068;52.502;9.860;2023-01-10T13:29:28;9.00;;;5.83;;
71288;SDS011;59068;52.502;9.860;2023-01-10T13:32:26;14.90;;;5.97;;
71288;SDS011;59068;52.502;9.860;2023-01-10T13:34:54;13.90;;;6.33;;
71288;SDS011;59068;52.502;9.860;2023-01-10T13:37:32;11.67;;;5.97;;
71288;SDS011;59068;52.502;9.860;2023-01-10T13:40:02;10.83;;;6.23;;
71288;SDS011;59068;52.502;9.860;2023-01-10T13:42:34;12.40;;;5.23;;
71288;SDS011;59068;52.502;9.860;2023-01-10T13:48:12;14.43;;;5.03;;
71288;SDS011;59068;52.502;9.860;2023-01-10T13:50:52;11.90;;;5.33;;
71288;SDS011;59068;52.502;9.860;2023-01-10T13:55:57;12.40;;;4.87;;
71288;SDS011;59068;52.502;9.860;2023-01-10T14:04:21;8.00;;;4.73;;
71288;SDS011;59068;52.502;9.860;2023-01-10T14:07:03;9.47;;;4.17;;
71288;SDS011;59068;52.502;9.860;2023-01-10T14:09:46;11.17;;;4.33;;
71288;SDS011;59068;52.502;9.860;2023-01-10T14:12:18;13.90;;;6.00;;
71288;SDS011;59068;52.502;9.860;2023-01-10T14:14:58;10.20;;;4.60;;
71288;SDS011;59068;52.502;9.860;2023-01-10T14:17:31;10.23;;;4.23;;
71288;SDS011;59068;52.502;9.860;2023-01-10T14:20:33;10.07;;;3.90;;
71288;SDS011;59068;52.502;9.860;2023-01-10T14:22:57;10.13;;;4.50;;
71288;SDS011;59068;52.502;9.860;2023-01-10T14:25:31;9.93;;;4.47;;
71288;SDS011;59068;52.502;9.860;2023-01-10T14:27:59;11.23;;;4.17;;
71288;SDS011;59068;52.502;9.860;2023-01-10T14:30:27;10.60;;;4.23;;
71288;SDS011;59068;52.502;9.860;2023-01-10T14:32:58;14.40;;;4.37;;
71288;SDS011;59068;52.502;9.860;2023-01-10T14:35:30;9.23;;;4.67;;
71288;SDS011;59068;52.502;9.860;2023-01-10T14:38:01;11.23;;;4.87;;
71288;SDS011;59068;52.502;9.860;2023-01-10T14:42:57;8.67;;;5.10;;
71288;SDS011;59068;52.502;9.860;2023-01-10T14:48:27;13.23;;;5.23;;
71288;SDS011;59068;52.502;9.860;2023-01-10T14:54:00;14.37;;;7.13;;
71288;SDS011;59068;52.502;9.860;2023-01-10T14:56:38;19.20;;;9.70;;
71288;SDS011;59068;52.502;9.860;2023-01-10T15:02:03;14.90;;;5.17;;
71288;SDS011;59068;52.502;9.860;2023-01-10T15:04:36;11.43;;;4.70;;
71288;SDS011;59068;52.502;9.860;2023-01-10T15:07:11;11.33;;;4.83;;
71288;SDS011;59068;52.502;9.860;2023-01-10T15:09:46;12.90;;;4.97;;
71288;SDS011;59068;52.502;9.860;2023-01-10T15:12:16;12.77;;;4.93;;
71288;SDS011;59068;52.502;9.860;2023-01-10T15:14:42;12.07;;;4.50;;
71288;SDS011;59068;52.502;9.860;2023-01-10T15:17:10;11.83;;;4.20;;
71288;SDS011;59068;52.502;9.860;2023-01-10T15:19:45;6.50;;;4.00;;
71288;SDS011;59068;52.502;9.860;2023-01-10T15:22:21;13.07;;;5.20;;
71288;SDS011;59068;52.502;9.860;2023-01-10T15:24:58;11.50;;;5.20;;
71288;SDS011;59068;52.502;9.860;2023-01-10T15:27:25;11.27;;;4.53;;
71288;SDS011;59068;52.502;9.860;2023-01-10T15:29:52;10.87;;;4.83;;
71288;SDS011;59068;52.502;9.860;2023-01-10T15:35:05;9.80;;;5.00;;
71288;SDS011;59068;52.502;9.860;2023-01-10T15:37:34;10.53;;;4.67;;
71288;SDS011;59068;52.502;9.860;2023-01-10T15:40:04;7.27;;;4.27;;
71288;SDS011;59068;52.502;9.860;2023-01-10T15:42:34;9.60;;;4.47;;
71288;SDS011;59068;52.502;9.860;2023-01-10T15:48:03;12.70;;;5.83;;
71288;SDS011;59068;52.502;9.860;2023-01-10T15:50:30;9.97;;;4.77;;
71288;SDS011;59068;52.502;9.860;2023-01-10T15:55:43;10.43;;;4.50;;
71288;SDS011;59068;52.502;9.860;2023-01-10T16:00:59;8.73;;;4.57;;
71288;SDS011;59068;52.502;9.860;2023-01-10T16:06:30;7.30;;;4.37;;
71288;SDS011;59068;52.502;9.860;2023-01-10T16:08:58;11.00;;;4.60;;
71288;SDS011;59068;52.502;9.860;2023-01-10T16:11:26;10.43;;;4.87;;
71288;SDS011;59068;52.502;9.860;2023-01-10T16:14:16;9.33;;;4.57;;
71288;SDS011;59068;52.502;9.860;2023-01-10T16:16:41;9.37;;;4.67;;
71288;SDS011;59068;52.502;9.860;2023-01-10T16:19:06;9.77;;;4.50;;
71288;SDS011;59068;52.502;9.860;2023-01-10T16:21:33;10.10;;;4.00;;
71288;SDS011;59068;52.502;9.860;2023-01-10T16:24:03;10.57;;;4.10;;
71288;SDS011;59068;52.502;9.860;2023-01-10T16:26:31;13.37;;;4.07;;
71288;SDS011;59068;52.502;9.860;2023-01-10T16:28:58;7.97;;;4.07;;
71288;SDS011;59068;52.502;9.860;2023-01-10T16:31:25;9.60;;;4.60;;
71288;SDS011;59068;52.502;9.860;2023-01-10T16:33:51;8.27;;;4.00;;
71288;SDS011;59068;52.502;9.860;2023-01-10T16:36:17;11.93;;;4.77;;
71288;SDS011;59068;52.502;9.860;2023-01-10T16:38:44;9.60;;;3.53;;
71288;SDS011;59068;52.502;9.860;2023-01-10T16:41:12;8.20;;;3.80;;
71288;SDS011;59068;52.502;9.860;2023-01-10T16:43:57;7.17;;;4.13;;
71288;SDS011;59068;52.502;9.860;2023-01-10T16:46:23;22.93;;;9.83;;
71288;SDS011;59068;52.502;9.860;2023-01-10T16:48:50;11.07;;;5.07;;
71288;SDS011;59068;52.502;9.860;2023-01-10T16:51:25;12.53;;;6.77;;
71288;SDS011;59068;52.502;9.860;2023-01-10T16:53:53;18.07;;;8.77;;
71288;SDS011;59068;52.502;9.860;2023-01-10T16:56:26;10.17;;;5.30;;
71288;SDS011;59068;52.502;9.860;2023-01-10T16:58:52;8.63;;;3.57;;